Main page
METAR-TAF:

METAR-TAF

Airports :

Boscombe Down, England

MoD Boscombe Down

latitude: 51-10N, longitude: 001-45W, elevation: 124 m

Current weather observation

The report was made 1 hour and 1 minutes ago, at 03:50 UTC
Wind 19 kt from the West
Temperature 9°C
Humidity 76%
Pressure 1010 hPa
Visibility 10 km or more

METAR: EGDM 220350Z AUTO 28019KT 9999 BKN220/// 09/05 Q1010

Time: 05:51 (04:51 UTC)


TAF: missing

Weather observations and forecasts of more than 4000 airports (METAR and TAF reports).

The available stations are represented by yellow and red dots on the map.

Hover mouse over dot to see the name of the station.

Then click to see weather observations and forecasts.

To change the map : click on the green buttons with a black cross to zoom in, on the green button with a dash to zoom out, or on the green arrows for adjacent maps.


METAR-TAF: